sensor_id;sensor_type;location;lat;lon;timestamp;pressure;altitude;pressure_sealevel;temperature;humidity
70976;BME280;58635;51.198;6.010;2022-08-21T00:00:39;101565.06;;;22.08;53.71
70976;BME280;58635;51.198;6.010;2022-08-21T00:03:09;101559.47;;;22.05;53.70
70976;BME280;58635;51.198;6.010;2022-08-21T00:05:40;101555.50;;;22.02;53.84
70976;BME280;58635;51.198;6.010;2022-08-21T00:08:07;101552.56;;;21.99;53.83
70976;BME280;58635;51.198;6.010;2022-08-21T00:10:33;101551.22;;;21.96;54.07
70976;BME280;58635;51.198;6.010;2022-08-21T00:13:00;101554.09;;;21.95;54.04
70976;BME280;58635;51.198;6.010;2022-08-21T00:15:29;101549.88;;;21.94;53.78
70976;BME280;58635;51.198;6.010;2022-08-21T00:17:55;101551.19;;;21.91;54.12
70976;BME280;58635;51.198;6.010;2022-08-21T00:20:22;101540.09;;;21.89;54.02
70976;BME280;58635;51.198;6.010;2022-08-21T00:22:49;101542.97;;;21.87;54.13
70976;BME280;58635;51.198;6.010;2022-08-21T00:25:16;101546.66;;;21.86;54.03
70976;BME280;58635;51.198;6.010;2022-08-21T00:27:42;101539.78;;;21.85;54.19
70976;BME280;58635;51.198;6.010;2022-08-21T00:30:10;101544.28;;;21.85;54.17
70976;BME280;58635;51.198;6.010;2022-08-21T00:32:37;101539.25;;;21.83;54.08
70976;BME280;58635;51.198;6.010;2022-08-21T00:35:06;101543.97;;;21.81;54.20
70976;BME280;58635;51.198;6.010;2022-08-21T00:37:31;101537.38;;;21.79;53.96
70976;BME280;58635;51.198;6.010;2022-08-21T00:39:57;101536.56;;;21.78;54.31
70976;BME280;58635;51.198;6.010;2022-08-21T00:42:22;101536.81;;;21.77;54.34
70976;BME280;58635;51.198;6.010;2022-08-21T00:44:49;101541.53;;;21.75;54.14
70976;BME280;58635;51.198;6.010;2022-08-21T00:47:16;101541.78;;;21.73;54.38
70976;BME280;58635;51.198;6.010;2022-08-21T00:49:42;101544.94;;;21.70;54.31
70976;BME280;58635;51.198;6.010;2022-08-21T00:52:16;101540.97;;;21.68;54.29
70976;BME280;58635;51.198;6.010;2022-08-21T00:54:43;101539.84;;;21.64;54.30
70976;BME280;58635;51.198;6.010;2022-08-21T00:57:13;101541.16;;;21.61;54.21
70976;BME280;58635;51.198;6.010;2022-08-21T00:59:40;101543.25;;;21.59;54.38
70976;BME280;58635;51.198;6.010;2022-08-21T01:02:07;101534.78;;;21.57;54.69
70976;BME280;58635;51.198;6.010;2022-08-21T01:04:33;101542.69;;;21.57;54.76
70976;BME280;58635;51.198;6.010;2022-08-21T01:06:59;101535.28;;;21.54;54.70
70976;BME280;58635;51.198;6.010;2022-08-21T01:09:25;101535.53;;;21.52;54.87
70976;BME280;58635;51.198;6.010;2022-08-21T01:11:50;101536.56;;;21.51;54.91
70976;BME280;58635;51.198;6.010;2022-08-21T01:14:16;101537.63;;;21.50;54.89
70976;BME280;58635;51.198;6.010;2022-08-21T01:16:45;101534.19;;;21.50;54.66
70976;BME280;58635;51.198;6.010;2022-08-21T01:19:11;101537.63;;;21.50;55.06
70976;BME280;58635;51.198;6.010;2022-08-21T01:21:37;101537.88;;;21.49;54.97
70976;BME280;58635;51.198;6.010;2022-08-21T01:24:03;101539.44;;;21.50;54.66
70976;BME280;58635;51.198;6.010;2022-08-21T01:26:31;101537.63;;;21.50;54.54
70976;BME280;58635;51.198;6.010;2022-08-21T01:29:03;101543.38;;;21.47;54.92
70976;BME280;58635;51.198;6.010;2022-08-21T01:31:30;101539.66;;;21.43;55.13
70976;BME280;58635;51.198;6.010;2022-08-21T01:33:58;101548.34;;;21.44;55.04
70976;BME280;58635;51.198;6.010;2022-08-21T01:36:25;101539.09;;;21.41;55.13
70976;BME280;58635;51.198;6.010;2022-08-21T01:38:51;101540.13;;;21.40;55.10
70976;BME280;58635;51.198;6.010;2022-08-21T01:41:16;101541.19;;;21.39;55.06
70976;BME280;58635;51.198;6.010;2022-08-21T01:43:42;101539.59;;;21.38;55.27
70976;BME280;58635;51.198;6.010;2022-08-21T01:46:09;101535.63;;;21.36;55.08
70976;BME280;58635;51.198;6.010;2022-08-21T01:48:35;101534.03;;;21.35;55.04
70976;BME280;58635;51.198;6.010;2022-08-21T01:51:01;101536.13;;;21.33;55.10
70976;BME280;58635;51.198;6.010;2022-08-21T01:53:27;101539.22;;;21.29;55.37
70976;BME280;58635;51.198;6.010;2022-08-21T01:55:53;101538.69;;;21.27;55.27
70976;BME280;58635;51.198;6.010;2022-08-21T01:58:18;101536.28;;;21.26;55.18
70976;BME280;58635;51.198;6.010;2022-08-21T02:00:44;101534.69;;;21.25;55.20
70976;BME280;58635;51.198;6.010;2022-08-21T02:03:09;101535.97;;;21.22;55.30
70976;BME280;58635;51.198;6.010;2022-08-21T02:05:35;101532.00;;;21.20;55.38
70976;BME280;58635;51.198;6.010;2022-08-21T02:08:00;101521.69;;;21.18;55.22
70976;BME280;58635;51.198;6.010;2022-08-21T02:10:29;101523.31;;;21.19;55.19
70976;BME280;58635;51.198;6.010;2022-08-21T02:12:55;101530.63;;;21.17;55.27
70976;BME280;58635;51.198;6.010;2022-08-21T02:15:21;101521.16;;;21.16;55.55
70976;BME280;58635;51.198;6.010;2022-08-21T02:17:53;101528.50;;;21.14;55.30
70976;BME280;58635;51.198;6.010;2022-08-21T02:20:22;101523.50;;;21.13;55.11
70976;BME280;58635;51.198;6.010;2022-08-21T02:22:48;101517.13;;;21.09;55.27
70976;BME280;58635;51.198;6.010;2022-08-21T02:25:14;101525.03;;;21.09;55.17
70976;BME280;58635;51.198;6.010;2022-08-21T02:27:42;101527.09;;;21.07;55.13
70976;BME280;58635;51.198;6.010;2022-08-21T02:30:12;101517.84;;;21.04;55.08
70976;BME280;58635;51.198;6.010;2022-08-21T02:32:39;101524.16;;;21.03;55.17
70976;BME280;58635;51.198;6.010;2022-08-21T02:35:05;101522.03;;;21.00;55.07
70976;BME280;58635;51.198;6.010;2022-08-21T02:37:30;101517.81;;;20.99;55.15
70976;BME280;58635;51.198;6.010;2022-08-21T02:39:56;101518.84;;;20.98;55.28
70976;BME280;58635;51.198;6.010;2022-08-21T02:42:21;101518.31;;;20.96;55.19
70976;BME280;58635;51.198;6.010;2022-08-21T02:44:47;101520.09;;;20.95;55.30
70976;BME280;58635;51.198;6.010;2022-08-21T02:47:13;101511.66;;;20.93;55.15
70976;BME280;58635;51.198;6.010;2022-08-21T02:49:39;101520.59;;;20.92;55.26
70976;BME280;58635;51.198;6.010;2022-08-21T02:52:04;101514.25;;;20.88;55.31
70976;BME280;58635;51.198;6.010;2022-08-21T02:54:31;101517.38;;;20.85;55.16
70976;BME280;58635;51.198;6.010;2022-08-21T02:56:56;101510.75;;;20.83;54.86
70976;BME280;58635;51.198;6.010;2022-08-21T02:59:22;101506.53;;;20.82;55.09
70976;BME280;58635;51.198;6.010;2022-08-21T03:01:47;101509.66;;;20.79;55.33
70976;BME280;58635;51.198;6.010;2022-08-21T03:04:13;101507.03;;;20.79;55.02
70976;BME280;58635;51.198;6.010;2022-08-21T03:06:38;101513.31;;;20.78;55.04
70976;BME280;58635;51.198;6.010;2022-08-21T03:09:03;101509.34;;;20.75;55.24
70976;BME280;58635;51.198;6.010;2022-08-21T03:11:29;101505.38;;;20.72;54.95
70976;BME280;58635;51.198;6.010;2022-08-21T03:13:54;101511.91;;;20.70;54.98
70976;BME280;58635;51.198;6.010;2022-08-21T03:16:19;101506.09;;;20.68;55.01
70976;BME280;58635;51.198;6.010;2022-08-21T03:18:46;101507.13;;;20.67;55.06
70976;BME280;58635;51.198;6.010;2022-08-21T03:21:11;101517.91;;;20.65;54.88
70976;BME280;58635;51.198;6.010;2022-08-21T03:23:38;101508.66;;;20.63;55.04
70976;BME280;58635;51.198;6.010;2022-08-21T03:26:06;101511.28;;;20.63;55.05
70976;BME280;58635;51.198;6.010;2022-08-21T03:28:31;101516.78;;;20.61;55.05
70976;BME280;58635;51.198;6.010;2022-08-21T03:30:57;101517.84;;;20.60;54.85
70976;BME280;58635;51.198;6.010;2022-08-21T03:33:23;101519.88;;;20.58;54.80
70976;BME280;58635;51.198;6.010;2022-08-21T03:35:57;101515.66;;;20.57;54.72
70976;BME280;58635;51.198;6.010;2022-08-21T03:38:23;101522.22;;;20.55;54.86
70976;BME280;58635;51.198;6.010;2022-08-21T03:40:49;101523.25;;;20.54;54.75
70976;BME280;58635;51.198;6.010;2022-08-21T03:43:14;101518.47;;;20.51;54.69
70976;BME280;58635;51.198;6.010;2022-08-21T03:45:40;101525.81;;;20.49;54.58
70976;BME280;58635;51.198;6.010;2022-08-21T03:48:06;101524.19;;;20.48;54.72
70976;BME280;58635;51.198;6.010;2022-08-21T03:50:34;101533.13;;;20.47;54.54
70976;BME280;58635;51.198;6.010;2022-08-21T03:53:00;101530.97;;;20.43;54.58
70976;BME280;58635;51.198;6.010;2022-08-21T03:55:26;101533.28;;;20.40;54.75
70976;BME280;58635;51.198;6.010;2022-08-21T03:57:51;101526.66;;;20.37;54.55
70976;BME280;58635;51.198;6.010;2022-08-21T04:00:18;101532.13;;;20.36;54.59
70976;BME280;58635;51.198;6.010;2022-08-21T04:02:44;101532.38;;;20.34;54.79
70976;BME280;58635;51.198;6.010;2022-08-21T04:05:12;101530.78;;;20.33;54.56
70976;BME280;58635;51.198;6.010;2022-08-21T04:07:37;101531.84;;;20.32;54.56
70976;BME280;58635;51.198;6.010;2022-08-21T04:10:05;101535.97;;;20.28;54.79
70976;BME280;58635;51.198;6.010;2022-08-21T04:12:31;101532.56;;;20.28;54.63
70976;BME280;58635;51.198;6.010;2022-08-21T04:14:56;101538.84;;;20.27;54.78
70976;BME280;58635;51.198;6.010;2022-08-21T04:17:22;101531.44;;;20.24;54.61
70976;BME280;58635;51.198;6.010;2022-08-21T04:19:47;101537.72;;;20.23;54.63
70976;BME280;58635;51.198;6.010;2022-08-21T04:22:15;101532.72;;;20.21;54.95
70976;BME280;58635;51.198;6.010;2022-08-21T04:24:40;101527.69;;;20.20;54.89
70976;BME280;58635;51.198;6.010;2022-08-21T04:27:06;101534.00;;;20.19;54.87
70976;BME280;58635;51.198;6.010;2022-08-21T04:29:31;101528.97;;;20.17;55.01
70976;BME280;58635;51.198;6.010;2022-08-21T04:31:56;101524.22;;;20.14;54.69
70976;BME280;58635;51.198;6.010;2022-08-21T04:34:22;101533.91;;;20.13;54.91
70976;BME280;58635;51.198;6.010;2022-08-21T04:36:47;101538.84;;;20.10;54.91
70976;BME280;58635;51.198;6.010;2022-08-21T04:39:13;101529.06;;;20.05;55.05
70976;BME280;58635;51.198;6.010;2022-08-21T04:41:38;101531.91;;;20.04;54.92
70976;BME280;58635;51.198;6.010;2022-08-21T04:44:04;101536.38;;;20.03;55.01
70976;BME280;58635;51.198;6.010;2022-08-21T04:46:31;101537.16;;;20.04;54.85
70976;BME280;58635;51.198;6.010;2022-08-21T04:48:56;101531.13;;;20.03;54.85
70976;BME280;58635;51.198;6.010;2022-08-21T04:51:34;101533.50;;;20.05;54.54
70976;BME280;58635;51.198;6.010;2022-08-21T04:54:08;101534.31;;;20.05;54.75
70976;BME280;58635;51.198;6.010;2022-08-21T04:57:13;101541.16;;;20.06;54.66
70976;BME280;58635;51.198;6.010;2022-08-21T04:59:41;101539.31;;;20.07;54.86
70976;BME280;58635;51.198;6.010;2022-08-21T05:02:08;101538.53;;;20.06;54.51
70976;BME280;58635;51.198;6.010;2022-08-21T05:04:36;101537.25;;;20.09;54.52
70976;BME280;58635;51.198;6.010;2022-08-21T05:07:05;101541.47;;;20.10;54.56
70976;BME280;58635;51.198;6.010;2022-08-21T05:09:32;101533.59;;;20.10;54.50
70976;BME280;58635;51.198;6.010;2022-08-21T05:11:58;101526.84;;;20.14;54.69
70976;BME280;58635;51.198;6.010;2022-08-21T05:14:25;101534.78;;;20.19;54.45
70976;BME280;58635;51.198;6.010;2022-08-21T05:16:52;101542.97;;;20.23;54.56
70976;BME280;58635;51.198;6.010;2022-08-21T05:19:17;101545.94;;;20.26;54.25
70976;BME280;58635;51.198;6.010;2022-08-21T05:21:45;101544.41;;;20.30;53.96
70976;BME280;58635;51.198;6.010;2022-08-21T05:24:11;101547.09;;;20.35;54.10
70976;BME280;58635;51.198;6.010;2022-08-21T05:26:37;101543.78;;;20.40;53.84
70976;BME280;58635;51.198;6.010;2022-08-21T05:29:03;101540.91;;;20.41;53.94
70976;BME280;58635;51.198;6.010;2022-08-21T05:31:28;101546.00;;;20.48;53.54
70976;BME280;58635;51.198;6.010;2022-08-21T05:33:54;101540.84;;;20.53;53.35
70976;BME280;58635;51.198;6.010;2022-08-21T05:36:19;101539.88;;;20.59;53.37
70976;BME280;58635;51.198;6.010;2022-08-21T05:38:45;101541.31;;;20.67;53.21
70976;BME280;58635;51.198;6.010;2022-08-21T05:41:10;101548.00;;;20.75;53.21
70976;BME280;58635;51.198;6.010;2022-08-21T05:43:35;101546.31;;;20.85;52.89
70976;BME280;58635;51.198;6.010;2022-08-21T05:46:05;101548.81;;;20.97;52.96
70976;BME280;58635;51.198;6.010;2022-08-21T05:48:32;101548.69;;;21.09;52.53
70976;BME280;58635;51.198;6.010;2022-08-21T05:51:04;101552.81;;;21.21;52.30
70976;BME280;58635;51.198;6.010;2022-08-21T05:53:30;101556.38;;;21.32;52.07
70976;BME280;58635;51.198;6.010;2022-08-21T05:55:55;101548.56;;;21.42;51.63
70976;BME280;58635;51.198;6.010;2022-08-21T05:58:21;101553.94;;;21.52;51.42
70976;BME280;58635;51.198;6.010;2022-08-21T06:00:49;101555.16;;;21.67;51.27
70976;BME280;58635;51.198;6.010;2022-08-21T06:03:18;101555.00;;;21.78;50.82
70976;BME280;58635;51.198;6.010;2022-08-21T06:05:44;101554.84;;;21.90;50.61
70976;BME280;58635;51.198;6.010;2022-08-21T06:08:10;101545.44;;;21.99;50.15
70976;BME280;58635;51.198;6.010;2022-08-21T06:10:36;101553.72;;;22.08;50.11
70976;BME280;58635;51.198;6.010;2022-08-21T06:13:02;101551.97;;;22.18;49.98
70976;BME280;58635;51.198;6.010;2022-08-21T06:15:28;101551.25;;;22.28;49.90
70976;BME280;58635;51.198;6.010;2022-08-21T06:17:54;101558.66;;;22.36;49.53
70976;BME280;58635;51.198;6.010;2022-08-21T06:20:19;101572.97;;;22.45;49.50
70976;BME280;58635;51.198;6.010;2022-08-21T06:22:45;101570.94;;;22.53;49.44
70976;BME280;58635;51.198;6.010;2022-08-21T06:25:10;101567.31;;;22.64;49.03
70976;BME280;58635;51.198;6.010;2022-08-21T06:27:36;101569.22;;;22.73;48.90
70976;BME280;58635;51.198;6.010;2022-08-21T06:30:03;101562.66;;;22.81;48.59
70976;BME280;58635;51.198;6.010;2022-08-21T06:32:29;101564.31;;;22.92;48.76
70976;BME280;58635;51.198;6.010;2022-08-21T06:34:54;101565.41;;;23.01;48.62
70976;BME280;58635;51.198;6.010;2022-08-21T06:37:19;101572.34;;;23.13;48.46
70976;BME280;58635;51.198;6.010;2022-08-21T06:39:45;101566.56;;;23.21;48.70
70976;BME280;58635;51.198;6.010;2022-08-21T06:42:17;101570.81;;;23.32;48.01
70976;BME280;58635;51.198;6.010;2022-08-21T06:44:43;101568.72;;;23.34;47.94
70976;BME280;58635;51.198;6.010;2022-08-21T06:47:08;101566.09;;;23.39;48.07
70976;BME280;58635;51.198;6.010;2022-08-21T06:49:34;101559.22;;;23.38;47.97
70976;BME280;58635;51.198;6.010;2022-08-21T06:51:59;101576.16;;;23.47;47.81
70976;BME280;58635;51.198;6.010;2022-08-21T06:54:25;101575.16;;;23.58;47.72
70976;BME280;58635;51.198;6.010;2022-08-21T06:56:50;101565.63;;;23.68;47.51
70976;BME280;58635;51.198;6.010;2022-08-21T06:59:16;101571.47;;;23.75;47.12
70976;BME280;58635;51.198;6.010;2022-08-21T07:01:41;101577.31;;;23.82;47.18
70976;BME280;58635;51.198;6.010;2022-08-21T07:04:07;101573.06;;;23.91;46.77
70976;BME280;58635;51.198;6.010;2022-08-21T07:06:33;101573.88;;;24.02;46.58
70976;BME280;58635;51.198;6.010;2022-08-21T07:08:58;101577.84;;;24.19;46.30
70976;BME280;58635;51.198;6.010;2022-08-21T07:11:24;101576.56;;;24.32;46.44
70976;BME280;58635;51.198;6.010;2022-08-21T07:13:51;101577.06;;;24.44;46.02
70976;BME280;58635;51.198;6.010;2022-08-21T07:16:19;101572.28;;;24.57;46.07
70976;BME280;58635;51.198;6.010;2022-08-21T07:18:45;101580.47;;;24.65;45.71
70976;BME280;58635;51.198;6.010;2022-08-21T07:21:10;101572.25;;;24.72;45.26
70976;BME280;58635;51.198;6.010;2022-08-21T07:23:48;101577.78;;;24.81;45.14
70976;BME280;58635;51.198;6.010;2022-08-21T07:26:16;101573.22;;;24.96;45.11
70976;BME280;58635;51.198;6.010;2022-08-21T07:28:42;101575.31;;;25.15;44.81
70976;BME280;58635;51.198;6.010;2022-08-21T07:31:10;101568.59;;;25.32;44.33
70976;BME280;58635;51.198;6.010;2022-08-21T07:33:36;101570.91;;;25.49;44.40
70976;BME280;58635;51.198;6.010;2022-08-21T07:36:02;101575.38;;;25.54;44.03
70976;BME280;58635;51.198;6.010;2022-08-21T07:38:28;101572.75;;;25.49;43.87
70976;BME280;58635;51.198;6.010;2022-08-21T07:40:55;101572.25;;;25.47;44.13
70976;BME280;58635;51.198;6.010;2022-08-21T07:43:22;101569.59;;;25.42;43.66
70976;BME280;58635;51.198;6.010;2022-08-21T07:45:48;101559.03;;;25.42;43.96
70976;BME280;58635;51.198;6.010;2022-08-21T07:48:15;101565.38;;;25.41;44.27
70976;BME280;58635;51.198;6.010;2022-08-21T07:50:40;101564.03;;;25.43;43.75
70976;BME280;58635;51.198;6.010;2022-08-21T07:53:06;101567.47;;;25.44;43.78
70976;BME280;58635;51.198;6.010;2022-08-21T07:55:32;101563.75;;;25.50;43.92
70976;BME280;58635;51.198;6.010;2022-08-21T07:57:58;101561.63;;;25.52;43.99
70976;BME280;58635;51.198;6.010;2022-08-21T08:00:25;101558.16;;;25.51;43.95
70976;BME280;58635;51.198;6.010;2022-08-21T08:02:52;101566.16;;;25.46;44.05
70976;BME280;58635;51.198;6.010;2022-08-21T08:05:22;101568.84;;;25.36;44.07
70976;BME280;58635;51.198;6.010;2022-08-21T08:07:48;101559.91;;;25.22;44.16
70976;BME280;58635;51.198;6.010;2022-08-21T08:10:13;101562.34;;;25.13;44.49
70976;BME280;58635;51.198;6.010;2022-08-21T08:12:40;101556.78;;;25.10;44.30
70976;BME280;58635;51.198;6.010;2022-08-21T08:15:10;101551.25;;;25.06;44.32
70976;BME280;58635;51.198;6.010;2022-08-21T08:17:35;101558.69;;;24.99;44.57
70976;BME280;58635;51.198;6.010;2022-08-21T08:20:03;101559.22;;;24.91;44.80
70976;BME280;58635;51.198;6.010;2022-08-21T08:22:29;101562.94;;;24.85;45.19
70976;BME280;58635;51.198;6.010;2022-08-21T08:24:55;101553.69;;;24.82;44.98
70976;BME280;58635;51.198;6.010;2022-08-21T08:27:21;101546.56;;;24.88;45.69
70976;BME280;58635;51.198;6.010;2022-08-21T08:29:47;101547.56;;;24.97;45.49
70976;BME280;58635;51.198;6.010;2022-08-21T08:32:13;101544.94;;;25.02;45.04
70976;BME280;58635;51.198;6.010;2022-08-21T08:34:39;101543.81;;;25.13;45.15
70976;BME280;58635;51.198;6.010;2022-08-21T08:37:06;101543.22;;;25.21;45.27
70976;BME280;58635;51.198;6.010;2022-08-21T08:39:32;101535.84;;;25.23;44.76
70976;BME280;58635;51.198;6.010;2022-08-21T08:42:18;101537.16;;;25.21;43.85
70976;BME280;58635;51.198;6.010;2022-08-21T08:44:46;101546.44;;;25.23;44.14
70976;BME280;58635;51.198;6.010;2022-08-21T08:47:15;101527.63;;;25.25;44.13
70976;BME280;58635;51.198;6.010;2022-08-21T08:50:03;101539.50;;;25.27;44.22
70976;BME280;58635;51.198;6.010;2022-08-21T08:52:36;101538.38;;;25.39;43.87
70976;BME280;58635;51.198;6.010;2022-08-21T08:55:15;101528.53;;;25.49;43.93
70976;BME280;58635;51.198;6.010;2022-08-21T08:57:45;101522.88;;;25.61;43.85
70976;BME280;58635;51.198;6.010;2022-08-21T09:00:15;101524.13;;;25.69;43.71
70976;BME280;58635;51.198;6.010;2022-08-21T09:02:42;101516.19;;;25.69;43.59
70976;BME280;58635;51.198;6.010;2022-08-21T09:05:20;101515.66;;;25.66;43.44
70976;BME280;58635;51.198;6.010;2022-08-21T09:10:29;101522.28;;;25.74;43.80
70976;BME280;58635;51.198;6.010;2022-08-21T09:21:51;101514.47;;;25.88;43.33
70976;BME280;58635;51.198;6.010;2022-08-21T09:27:14;101504.09;;;25.91;43.22
70976;BME280;58635;51.198;6.010;2022-08-21T09:29:44;101515.75;;;25.96;43.20
70976;BME280;58635;51.198;6.010;2022-08-21T09:35:16;101521.47;;;26.08;42.94
70976;BME280;58635;51.198;6.010;2022-08-21T09:37:59;101512.91;;;26.16;42.46
70976;BME280;58635;51.198;6.010;2022-08-21T09:40:37;101514.66;;;26.26;42.46
70976;BME280;58635;51.198;6.010;2022-08-21T09:45:33;101509.53;;;26.34;42.01
70976;BME280;58635;51.198;6.010;2022-08-21T09:48:18;101512.97;;;26.35;42.21
70976;BME280;58635;51.198;6.010;2022-08-21T09:50:45;101512.44;;;26.38;42.11
70976;BME280;58635;51.198;6.010;2022-08-21T09:53:22;101509.00;;;26.37;41.86
70976;BME280;58635;51.198;6.010;2022-08-21T09:58:45;101504.78;;;26.36;42.02
70976;BME280;58635;51.198;6.010;2022-08-21T10:01:20;101505.00;;;26.40;41.74
70976;BME280;58635;51.198;6.010;2022-08-21T10:03:46;101505.97;;;26.49;41.53
70976;BME280;58635;51.198;6.010;2022-08-21T10:06:24;101507.50;;;26.55;41.29
70976;BME280;58635;51.198;6.010;2022-08-21T10:08:50;101514.31;;;26.61;40.77
70976;BME280;58635;51.198;6.010;2022-08-21T10:11:17;101509.75;;;26.67;40.93
70976;BME280;58635;51.198;6.010;2022-08-21T10:19:12;101499.88;;;26.91;40.42
70976;BME280;58635;51.198;6.010;2022-08-21T10:27:00;101504.34;;;26.96;40.42
70976;BME280;58635;51.198;6.010;2022-08-21T10:39:43;101484.63;;;27.39;39.60
70976;BME280;58635;51.198;6.010;2022-08-21T10:48:04;101496.25;;;27.44;39.46
70976;BME280;58635;51.198;6.010;2022-08-21T10:55:37;101499.84;;;27.72;38.87
70976;BME280;58635;51.198;6.010;2022-08-21T10:58:09;101499.16;;;27.80;38.21
70976;BME280;58635;51.198;6.010;2022-08-21T11:00:47;101504.91;;;27.87;38.28
70976;BME280;58635;51.198;6.010;2022-08-21T11:03:38;101500.34;;;27.87;38.31
70976;BME280;58635;51.198;6.010;2022-08-21T11:06:21;101498.50;;;27.88;38.34
70976;BME280;58635;51.198;6.010;2022-08-21T11:08:55;101500.84;;;27.89;37.87
70976;BME280;58635;51.198;6.010;2022-08-21T11:11:32;101492.59;;;27.91;38.20
70976;BME280;58635;51.198;6.010;2022-08-21T11:16:48;101484.00;;;27.94;38.54
70976;BME280;58635;51.198;6.010;2022-08-21T11:22:48;101489.75;;;28.15;37.84
70976;BME280;58635;51.198;6.010;2022-08-21T11:30:10;101482.97;;;28.64;36.21
70976;BME280;58635;51.198;6.010;2022-08-21T11:41:23;101488.97;;;28.83;35.97
70976;BME280;58635;51.198;6.010;2022-08-21T11:46:31;101482.34;;;29.08;35.68
70976;BME280;58635;51.198;6.010;2022-08-21T11:49:18;101488.34;;;29.36;35.45
70976;BME280;58635;51.198;6.010;2022-08-21T11:54:47;101471.19;;;29.95;34.38
70976;BME280;58635;51.198;6.010;2022-08-21T11:57:32;101473.94;;;30.13;33.85
70976;BME280;58635;51.198;6.010;2022-08-21T12:02:34;101471.88;;;30.58;33.01
70976;BME280;58635;51.198;6.010;2022-08-21T12:05:07;101468.41;;;30.58;32.95
70976;BME280;58635;51.198;6.010;2022-08-21T12:07:41;101465.44;;;30.59;33.10
70976;BME280;58635;51.198;6.010;2022-08-21T12:10:11;101457.41;;;30.59;32.92
70976;BME280;58635;51.198;6.010;2022-08-21T12:12:40;101459.63;;;30.66;32.87
70976;BME280;58635;51.198;6.010;2022-08-21T12:20:36;101468.63;;;30.70;32.51
70976;BME280;58635;51.198;6.010;2022-08-21T12:25:38;101475.38;;;30.84;32.13
70976;BME280;58635;51.198;6.010;2022-08-21T12:28:15;101471.00;;;31.06;32.05
70976;BME280;58635;51.198;6.010;2022-08-21T12:30:44;101471.97;;;31.27;31.60
70976;BME280;58635;51.198;6.010;2022-08-21T12:33:32;101479.16;;;31.44;31.21
70976;BME280;58635;51.198;6.010;2022-08-21T12:36:15;101480.41;;;31.47;31.32
70976;BME280;58635;51.198;6.010;2022-08-21T12:38:51;101471.75;;;31.50;30.85
70976;BME280;58635;51.198;6.010;2022-08-21T12:41:26;101474.91;;;31.52;30.60
70976;BME280;58635;51.198;6.010;2022-08-21T12:44:15;101474.13;;;31.51;30.90
70976;BME280;58635;51.198;6.010;2022-08-21T12:46:56;101472.69;;;31.54;30.87
70976;BME280;58635;51.198;6.010;2022-08-21T12:49:35;101470.28;;;31.61;30.75
70976;BME280;58635;51.198;6.010;2022-08-21T12:52:22;101478.47;;;31.64;30.73
70976;BME280;58635;51.198;6.010;2022-08-21T12:54:48;101481.63;;;31.58;30.49
70976;BME280;58635;51.198;6.010;2022-08-21T12:57:22;101473.78;;;31.61;30.87
70976;BME280;58635;51.198;6.010;2022-08-21T12:59:59;101471.38;;;31.68;30.24
70976;BME280;58635;51.198;6.010;2022-08-21T13:02:36;101468.56;;;31.74;30.29
70976;BME280;58635;51.198;6.010;2022-08-21T13:05:06;101470.75;;;31.71;29.87
70976;BME280;58635;51.198;6.010;2022-08-21T13:07:34;101466.97;;;31.72;30.11
70976;BME280;58635;51.198;6.010;2022-08-21T13:10:18;101453.00;;;31.76;29.56
70976;BME280;58635;51.198;6.010;2022-08-21T13:12:44;101455.31;;;31.86;29.87
70976;BME280;58635;51.198;6.010;2022-08-21T13:15:11;101459.38;;;31.92;29.46
70976;BME280;58635;51.198;6.010;2022-08-21T13:17:40;101445.19;;;32.00;29.43
70976;BME280;58635;51.198;6.010;2022-08-21T13:20:20;101443.38;;;32.13;29.03
70976;BME280;58635;51.198;6.010;2022-08-21T13:22:45;101449.78;;;32.20;29.01
70976;BME280;58635;51.198;6.010;2022-08-21T13:25:13;101451.50;;;32.25;28.72
70976;BME280;58635;51.198;6.010;2022-08-21T13:27:43;101456.38;;;32.32;28.57
70976;BME280;58635;51.198;6.010;2022-08-21T13:30:11;101450.38;;;32.35;28.27
70976;BME280;58635;51.198;6.010;2022-08-21T13:32:44;101449.16;;;32.23;27.78
70976;BME280;58635;51.198;6.010;2022-08-21T13:35:17;101445.50;;;31.98;27.75
70976;BME280;58635;51.198;6.010;2022-08-21T13:37:44;101443.22;;;31.80;28.11
70976;BME280;58635;51.198;6.010;2022-08-21T13:40:15;101444.97;;;31.76;27.85
70976;BME280;58635;51.198;6.010;2022-08-21T13:42:43;101442.88;;;31.81;27.61
70976;BME280;58635;51.198;6.010;2022-08-21T13:45:25;101442.09;;;31.89;27.84
70976;BME280;58635;51.198;6.010;2022-08-21T13:47:51;101443.16;;;31.97;27.83
70976;BME280;58635;51.198;6.010;2022-08-21T13:50:20;101444.22;;;32.05;27.79
70976;BME280;58635;51.198;6.010;2022-08-21T13:52:55;101439.16;;;32.12;27.80
70976;BME280;58635;51.198;6.010;2022-08-21T13:55:22;101443.97;;;32.18;27.91
70976;BME280;58635;51.198;6.010;2022-08-21T13:57:58;101440.34;;;32.23;27.55
70976;BME280;58635;51.198;6.010;2022-08-21T14:00:29;101439.22;;;32.24;27.54
70976;BME280;58635;51.198;6.010;2022-08-21T14:03:02;101436.94;;;32.14;27.42
70976;BME280;58635;51.198;6.010;2022-08-21T14:05:32;101442.47;;;32.09;27.54
70976;BME280;58635;51.198;6.010;2022-08-21T14:08:12;101441.81;;;32.12;26.80
70976;BME280;58635;51.198;6.010;2022-08-21T14:10:44;101437.28;;;32.04;26.71
70976;BME280;58635;51.198;6.010;2022-08-21T14:16:00;101440.50;;;31.88;27.27
70976;BME280;58635;51.198;6.010;2022-08-21T14:18:27;101434.41;;;31.79;27.74
70976;BME280;58635;51.198;6.010;2022-08-21T14:21:07;101440.41;;;31.76;27.69
70976;BME280;58635;51.198;6.010;2022-08-21T14:23:34;101424.16;;;31.72;27.97
70976;BME280;58635;51.198;6.010;2022-08-21T14:26:03;101424.69;;;31.75;27.92
70976;BME280;58635;51.198;6.010;2022-08-21T14:28:39;101421.69;;;31.76;27.01
70976;BME280;58635;51.198;6.010;2022-08-21T14:31:15;101421.03;;;31.70;27.34